createdAt,value
2019-01-08T00:00:06.021Z,1004.56
2019-01-08T00:01:06.039Z,1004.42
2019-01-08T00:02:05.996Z,1004.43
2019-01-08T00:03:05.984Z,1004.40
2019-01-08T00:04:05.978Z,1004.35
2019-01-08T00:05:05.969Z,1004.37
2019-01-08T00:06:05.956Z,1004.38
2019-01-08T00:07:05.959Z,1004.25
2019-01-08T00:08:05.928Z,1004.24
2019-01-08T00:09:05.924Z,1004.25
2019-01-08T00:10:05.908Z,1004.21
2019-01-08T00:11:05.905Z,1004.36
2019-01-08T00:12:05.888Z,1004.20
2019-01-08T00:13:05.896Z,1004.19
2019-01-08T00:14:05.867Z,1004.22
2019-01-08T00:15:05.852Z,1004.23
2019-01-08T00:16:05.842Z,1004.11
2019-01-08T00:17:05.841Z,1004.05
2019-01-08T00:18:05.824Z,1004.06
2019-01-08T00:19:05.821Z,1004.06
2019-01-08T00:20:05.799Z,1004.18
2019-01-08T00:21:05.784Z,1004.14
2019-01-08T00:22:05.776Z,1004.18
2019-01-08T00:23:05.764Z,1004.10
2019-01-08T00:24:05.771Z,1004.08
2019-01-08T00:25:05.740Z,1004.24
2019-01-08T00:26:05.749Z,1004.10
2019-01-08T00:27:05.720Z,1004.09
2019-01-08T00:28:05.708Z,1004.07
2019-01-08T00:29:05.696Z,1004.08
2019-01-08T00:30:05.688Z,1004.05
2019-01-08T00:31:05.676Z,1004.12
2019-01-08T00:32:05.697Z,1004.00
2019-01-08T00:33:05.655Z,1004.01
2019-01-08T00:34:05.640Z,1004.00
2019-01-08T00:35:05.632Z,1003.96
2019-01-08T00:36:05.620Z,1004.00
2019-01-08T00:37:05.620Z,1003.96
2019-01-08T00:38:05.608Z,1003.93
2019-01-08T00:39:05.592Z,1003.93
2019-01-08T00:40:05.576Z,1003.83
2019-01-08T00:41:05.566Z,1003.86
2019-01-08T00:42:05.552Z,1003.85
2019-01-08T00:43:05.557Z,1003.83
2019-01-08T00:44:05.532Z,1003.91
2019-01-08T00:45:05.527Z,1003.87
2019-01-08T00:46:05.511Z,1003.88
2019-01-08T00:47:05.496Z,1003.85
2019-01-08T00:48:05.490Z,1003.90
2019-01-08T00:49:05.503Z,1003.83
2019-01-08T00:50:05.463Z,1003.81
2019-01-08T00:51:05.465Z,1003.75
2019-01-08T00:52:05.444Z,1003.81
2019-01-08T00:53:05.436Z,1003.79
2019-01-08T00:54:05.424Z,1003.81
2019-01-08T00:55:05.434Z,1003.75
2019-01-08T00:56:05.409Z,1003.84
2019-01-08T00:57:05.400Z,1003.84
2019-01-08T00:58:05.376Z,1003.72
2019-01-08T00:59:05.365Z,1003.76
2019-01-08T01:00:05.352Z,1003.68
2019-01-08T01:01:05.360Z,1003.77
2019-01-08T01:02:05.334Z,1003.74
2019-01-08T01:03:05.326Z,1003.78
2019-01-08T01:04:05.308Z,1003.70
2019-01-08T01:05:05.305Z,1003.78
2019-01-08T01:06:05.291Z,1003.79
2019-01-08T01:07:05.292Z,1003.74
2019-01-08T01:08:05.264Z,1003.72
2019-01-08T01:09:05.256Z,1003.79
2019-01-08T01:10:05.264Z,1003.72
2019-01-08T01:11:05.232Z,1003.80
2019-01-08T01:12:05.220Z,1003.70
2019-01-08T01:13:05.214Z,1003.71
2019-01-08T01:14:05.196Z,1003.69
2019-01-08T01:15:05.200Z,1003.72
2019-01-08T01:16:05.192Z,1003.79
2019-01-08T01:17:05.164Z,1003.63
2019-01-08T01:18:05.155Z,1003.60
2019-01-08T01:19:05.140Z,1003.62
2019-01-08T01:20:05.140Z,1003.60
2019-01-08T01:21:05.144Z,1003.66
2019-01-08T01:22:05.112Z,1003.56
2019-01-08T01:23:05.102Z,1003.56
2019-01-08T01:24:05.089Z,1003.63
2019-01-08T01:25:05.082Z,1003.62
2019-01-08T01:26:05.064Z,1003.56
2019-01-08T01:27:05.107Z,1003.55
2019-01-08T01:28:05.045Z,1003.57
2019-01-08T01:29:05.036Z,1003.53
2019-01-08T01:30:05.020Z,1003.56
2019-01-08T01:31:05.015Z,1003.49
2019-01-08T01:32:05.008Z,1003.50
2019-01-08T01:33:05.004Z,1003.47
2019-01-08T01:34:04.976Z,1003.51
2019-01-08T01:35:04.968Z,1003.46
2019-01-08T01:36:04.952Z,1003.48
2019-01-08T01:37:04.941Z,1003.55
2019-01-08T01:38:04.948Z,1003.49
2019-01-08T01:39:04.921Z,1003.47
2019-01-08T01:40:04.967Z,1003.48
2019-01-08T01:41:04.896Z,1003.44
2019-01-08T01:42:04.892Z,1003.52
2019-01-08T01:43:04.895Z,1003.52
2019-01-08T01:44:04.888Z,1003.36
2019-01-08T01:45:04.856Z,1003.43
2019-01-08T01:46:04.852Z,1003.50
2019-01-08T01:47:04.836Z,1003.42
2019-01-08T01:48:04.820Z,1003.41
2019-01-08T01:49:04.828Z,1003.38
2019-01-08T01:50:04.796Z,1003.39
2019-01-08T01:51:04.784Z,1003.42
2019-01-08T01:52:04.776Z,1003.39
2019-01-08T01:53:04.764Z,1003.52
2019-01-08T01:54:04.760Z,1003.33
2019-01-08T01:55:04.775Z,1003.31
2019-01-08T01:56:04.732Z,1003.44
2019-01-08T01:57:04.724Z,1003.32
2019-01-08T01:58:04.707Z,1003.44
2019-01-08T01:59:08.630Z,1003.25
2019-01-08T02:00:04.684Z,1003.19
2019-01-08T02:01:04.684Z,1003.29
2019-01-08T02:02:04.672Z,1003.22
2019-01-08T02:03:04.672Z,1003.20
2019-01-08T02:04:04.647Z,1003.19
2019-01-08T02:05:04.631Z,1003.29
2019-01-08T02:06:04.621Z,1003.18
2019-01-08T02:07:04.608Z,1003.25
2019-01-08T02:08:04.600Z,1003.16
2019-01-08T02:09:04.616Z,1003.21
2019-01-08T02:10:04.572Z,1003.28
2019-01-08T02:11:04.564Z,1003.22
2019-01-08T02:12:04.551Z,1003.21
2019-01-08T02:13:04.539Z,1003.18
2019-01-08T02:14:04.530Z,1003.15
2019-01-08T02:15:04.539Z,1003.22
2019-01-08T02:16:04.512Z,1003.13
2019-01-08T02:17:04.540Z,1003.19
2019-01-08T02:18:04.489Z,1003.18
2019-01-08T02:19:04.484Z,1003.18
2019-01-08T02:20:04.464Z,1003.12
2019-01-08T02:21:04.460Z,1003.20
2019-01-08T02:22:04.440Z,1003.12
2019-01-08T02:23:04.443Z,1003.10
2019-01-08T02:24:04.415Z,1003.07
2019-01-08T02:25:04.412Z,1003.08
2019-01-08T02:26:04.395Z,1003.05
2019-01-08T02:27:04.392Z,1003.05
2019-01-08T02:28:04.372Z,1003.03
2019-01-08T02:29:04.380Z,1003.01
2019-01-08T02:30:04.352Z,1003.07
2019-01-08T02:31:04.340Z,1003.04
2019-01-08T02:32:04.327Z,1003.06
2019-01-08T02:33:04.328Z,1003.03
2019-01-08T02:34:04.326Z,1003.02
2019-01-08T02:35:04.311Z,1002.94
2019-01-08T02:36:04.292Z,1003.00
2019-01-08T02:37:04.281Z,1002.97
2019-01-08T02:38:04.271Z,1003.21
2019-01-08T02:39:04.264Z,1002.98
2019-01-08T02:40:04.265Z,1002.99
2019-01-08T02:41:04.257Z,1002.99
2019-01-08T02:42:04.216Z,1002.95
2019-01-08T02:43:04.212Z,1002.94
2019-01-08T02:44:04.317Z,1002.96
2019-01-08T02:45:04.185Z,1002.93
2019-01-08T02:46:04.233Z,1003.02
2019-01-08T02:47:04.159Z,1002.85
2019-01-08T02:48:04.152Z,1002.93
2019-01-08T02:49:04.144Z,1002.90
2019-01-08T02:50:04.128Z,1003.01
2019-01-08T02:51:04.123Z,1002.78
2019-01-08T02:52:04.132Z,1002.76
2019-01-08T02:53:04.095Z,1002.71
2019-01-08T02:54:04.085Z,1002.78
2019-01-08T02:55:04.075Z,1002.78
2019-01-08T02:56:04.067Z,1002.70
2019-01-08T02:57:04.063Z,1002.75
2019-01-08T02:58:04.052Z,1002.68
2019-01-08T02:59:04.039Z,1002.60
2019-01-08T03:00:04.016Z,1002.60
2019-01-08T03:01:04.014Z,1002.56
2019-01-08T03:02:04.016Z,1002.60
2019-01-08T03:03:03.987Z,1002.62
2019-01-08T03:04:03.972Z,1002.65
2019-01-08T03:05:03.972Z,1002.49
2019-01-08T03:06:03.952Z,1002.53
2019-01-08T03:07:03.942Z,1002.59
2019-01-08T03:08:03.939Z,1002.51
2019-01-08T03:09:03.919Z,1002.58
2019-01-08T03:10:03.908Z,1002.45
2019-01-08T03:11:03.899Z,1002.44
2019-01-08T03:12:03.892Z,1002.35
2019-01-08T03:13:03.895Z,1002.32
2019-01-08T03:14:03.861Z,1002.43
2019-01-08T03:15:03.852Z,1002.34
2019-01-08T03:16:03.839Z,1002.41
2019-01-08T03:17:03.829Z,1002.29
2019-01-08T03:18:03.824Z,1002.23
2019-01-08T03:19:03.815Z,1002.26
2019-01-08T03:20:03.800Z,1002.30
2019-01-08T03:21:03.784Z,1002.21
2019-01-08T03:22:03.775Z,1002.39
2019-01-08T03:23:03.759Z,1002.29
2019-01-08T03:24:03.756Z,1002.30
2019-01-08T03:25:03.751Z,1002.29
2019-01-08T03:26:03.727Z,1002.21
2019-01-08T03:27:03.715Z,1002.20
2019-01-08T03:28:03.704Z,1002.09
2019-01-08T03:29:03.691Z,1002.13
2019-01-08T03:30:03.684Z,1002.04
2019-01-08T03:31:03.699Z,1002.04
2019-01-08T03:32:03.664Z,1002.01
2019-01-08T03:33:03.647Z,1001.92
2019-01-08T03:34:03.639Z,1002.02
2019-01-08T03:35:03.627Z,1001.97
2019-01-08T03:36:03.627Z,1002.13
2019-01-08T03:37:03.627Z,1001.95
2019-01-08T03:38:03.598Z,1001.95
2019-01-08T03:39:03.587Z,1001.91
2019-01-08T03:40:03.575Z,1001.76
2019-01-08T03:41:03.564Z,1001.78
2019-01-08T03:42:03.548Z,1001.74
2019-01-08T03:43:03.567Z,1001.49
2019-01-08T03:44:03.528Z,1001.47
2019-01-08T03:45:03.519Z,1001.54
2019-01-08T03:46:03.507Z,1001.69
2019-01-08T03:47:03.493Z,1001.42
2019-01-08T03:48:03.483Z,1001.50
2019-01-08T03:49:03.495Z,1001.52
2019-01-08T03:50:03.463Z,1001.63
2019-01-08T03:51:03.448Z,1001.63
2019-01-08T03:52:03.435Z,1001.50
2019-01-08T03:53:03.432Z,1001.71
2019-01-08T03:54:03.419Z,1001.55
2019-01-08T03:55:03.423Z,1001.53
2019-01-08T03:56:03.397Z,1001.56
2019-01-08T03:57:03.383Z,1001.53
2019-01-08T03:58:03.371Z,1001.43
2019-01-08T03:59:03.371Z,1001.48
2019-01-08T04:00:03.363Z,1001.29
2019-01-08T04:01:03.352Z,1001.31
2019-01-08T04:02:03.323Z,1001.30
2019-01-08T04:03:03.315Z,1001.37
2019-01-08T04:04:03.311Z,1001.28
2019-01-08T04:05:03.366Z,1001.37
2019-01-08T04:06:03.303Z,1001.29
2019-01-08T04:07:03.288Z,1001.17
2019-01-08T04:08:03.263Z,1001.09
2019-01-08T04:09:03.249Z,1001.14
2019-01-08T04:10:03.240Z,1001.08
2019-01-08T04:11:03.224Z,1001.08
2019-01-08T04:12:03.231Z,1001.01
2019-01-08T04:13:03.203Z,1001.04
2019-01-08T04:14:03.195Z,1001.04
2019-01-08T04:15:03.183Z,1001.12
2019-01-08T04:16:03.171Z,1001.22
2019-01-08T04:17:03.171Z,1001.03
2019-01-08T04:18:03.175Z,1000.91
2019-01-08T04:19:03.159Z,1001.01
2019-01-08T04:20:03.127Z,1000.82
2019-01-08T04:21:03.115Z,1000.82
2019-01-08T04:22:03.106Z,1000.90
2019-01-08T04:23:03.103Z,1000.83
2019-01-08T04:24:03.095Z,1000.86
2019-01-08T04:25:03.075Z,1000.84
2019-01-08T04:26:03.061Z,1000.92
2019-01-08T04:27:03.054Z,1000.63
2019-01-08T04:28:03.049Z,1000.72
2019-01-08T04:29:03.022Z,1000.71
2019-01-08T04:30:03.031Z,1000.59
2019-01-08T04:31:03.015Z,1000.67
2019-01-08T04:32:02.999Z,1000.57
2019-01-08T04:33:02.978Z,1000.53
2019-01-08T04:34:02.967Z,1000.57
2019-01-08T04:35:02.998Z,1000.49
2019-01-08T04:36:02.946Z,1000.51
2019-01-08T04:37:02.939Z,1000.40
2019-01-08T04:38:02.923Z,1000.49
2019-01-08T04:39:02.934Z,1000.50
2019-01-08T04:40:02.903Z,1000.48
2019-01-08T04:41:02.905Z,1000.48
2019-01-08T04:42:02.887Z,1000.52
2019-01-08T04:43:02.869Z,1000.52
2019-01-08T04:44:02.864Z,1000.41
2019-01-08T04:45:02.846Z,1000.48
2019-01-08T04:46:02.859Z,1000.50
2019-01-08T04:47:02.827Z,1000.48
2019-01-08T04:48:02.820Z,1000.30
2019-01-08T04:49:02.807Z,1000.44
2019-01-08T04:50:02.791Z,1000.45
2019-01-08T04:51:02.782Z,1000.44
2019-01-08T04:52:02.787Z,1000.34
2019-01-08T04:53:02.767Z,1000.35
2019-01-08T04:54:02.751Z,1000.37
2019-01-08T04:55:02.740Z,1000.30
2019-01-08T04:56:02.729Z,1000.32
2019-01-08T04:57:02.735Z,1000.28
2019-01-08T04:58:02.703Z,1000.41
2019-01-08T04:59:02.690Z,1000.35
2019-01-08T05:00:02.682Z,1000.18
2019-01-08T05:01:02.764Z,1000.19
2019-01-08T05:02:02.663Z,1000.24
2019-01-08T05:03:02.671Z,1000.46
2019-01-08T05:04:02.654Z,1000.31
2019-01-08T05:05:02.632Z,1000.40
2019-01-08T05:06:02.612Z,1000.25
2019-01-08T05:07:02.606Z,1000.45
2019-01-08T05:08:02.614Z,1000.35
2019-01-08T05:09:02.578Z,1000.45
2019-01-08T05:10:02.570Z,1000.34
2019-01-08T05:11:02.562Z,1000.42
2019-01-08T05:12:02.546Z,1000.31
2019-01-08T05:13:02.558Z,1000.11
2019-01-08T05:14:02.523Z,1000.25
2019-01-08T05:15:02.516Z,1000.37
2019-01-08T05:16:02.506Z,1000.13
2019-01-08T05:17:02.505Z,1000.09
2019-01-08T05:18:02.483Z,1000.10
2019-01-08T05:19:02.486Z,1000.12
2019-01-08T05:20:02.467Z,1000.09
2019-01-08T05:21:02.464Z,1000.09
2019-01-08T05:22:02.438Z,1000.07
2019-01-08T05:23:02.431Z,1000.02
2019-01-08T05:24:02.410Z,1000.04
2019-01-08T05:25:02.403Z,999.98
2019-01-08T05:26:02.395Z,999.95
2019-01-08T05:27:02.398Z,999.96
2019-01-08T05:28:02.371Z,999.97
2019-01-08T05:29:02.383Z,1000.02
2019-01-08T05:30:07.947Z,1000.08
2019-01-08T05:31:03.334Z,999.95
2019-01-08T05:32:02.322Z,999.99
2019-01-08T05:33:02.347Z,999.95
2019-01-08T05:34:02.306Z,999.93
2019-01-08T05:35:02.295Z,999.84
2019-01-08T05:36:02.332Z,999.93
2019-01-08T05:37:02.266Z,999.91
2019-01-08T05:38:02.259Z,999.92
2019-01-08T05:39:02.276Z,999.94
2019-01-08T05:40:02.235Z,999.94
2019-01-08T05:41:02.234Z,999.90
2019-01-08T05:42:02.210Z,999.86
2019-01-08T05:43:02.205Z,999.94
2019-01-08T05:44:02.207Z,999.86
2019-01-08T05:45:02.189Z,999.83
2019-01-08T05:46:02.170Z,999.86
2019-01-08T05:47:02.158Z,999.84
2019-01-08T05:48:02.146Z,999.77
2019-01-08T05:49:02.138Z,999.79
2019-01-08T05:50:02.150Z,999.80
2019-01-08T05:51:02.118Z,999.78
2019-01-08T05:52:02.102Z,999.78
2019-01-08T05:53:02.095Z,999.68
2019-01-08T05:54:02.085Z,999.69
2019-01-08T05:55:02.077Z,999.72
2019-01-08T05:56:02.087Z,999.70
2019-01-08T05:57:02.058Z,999.87
2019-01-08T05:58:02.034Z,999.96
2019-01-08T05:59:02.030Z,999.85
2019-01-08T06:00:02.022Z,999.71
2019-01-08T06:01:02.004Z,999.71
2019-01-08T06:02:02.079Z,999.73
2019-01-08T06:03:01.986Z,999.70
2019-01-08T06:04:01.997Z,999.67
2019-01-08T06:05:01.962Z,999.69
2019-01-08T06:06:01.949Z,999.81
2019-01-08T06:07:01.949Z,999.66
2019-01-08T06:08:01.946Z,999.72
2019-01-08T06:09:01.921Z,999.58
2019-01-08T06:10:01.902Z,999.60
2019-01-08T06:11:01.894Z,999.61
2019-01-08T06:12:01.884Z,999.59
2019-01-08T06:13:01.893Z,999.50
2019-01-08T06:14:01.881Z,999.36
2019-01-08T06:15:01.857Z,999.43
2019-01-08T06:16:01.843Z,999.45
2019-01-08T06:17:01.834Z,999.39
2019-01-08T06:18:01.817Z,999.37
2019-01-08T06:19:01.817Z,999.32
2019-01-08T06:20:01.804Z,999.40
2019-01-08T06:21:01.791Z,999.40
2019-01-08T06:22:01.771Z,999.41
2019-01-08T06:23:01.765Z,999.39
2019-01-08T06:24:01.749Z,999.29
2019-01-08T06:25:01.762Z,999.54
2019-01-08T06:26:01.751Z,999.39
2019-01-08T06:27:01.721Z,999.42
2019-01-08T06:28:01.705Z,999.34
2019-01-08T06:29:01.697Z,999.29
2019-01-08T06:30:01.681Z,999.39
2019-01-08T06:31:01.687Z,999.48
2019-01-08T06:32:01.665Z,999.41
2019-01-08T06:33:01.660Z,999.43
2019-01-08T06:34:01.653Z,999.44
2019-01-08T06:35:01.626Z,999.42
2019-01-08T06:36:01.617Z,999.54
2019-01-08T06:37:01.638Z,999.48
2019-01-08T06:38:01.601Z,999.39
2019-01-08T06:39:01.581Z,999.50
2019-01-08T06:40:01.574Z,999.54
2019-01-08T06:41:01.565Z,999.41
2019-01-08T06:42:01.565Z,999.42
2019-01-08T06:43:01.552Z,999.43
2019-01-08T06:44:01.537Z,999.40
2019-01-08T06:45:01.514Z,999.54
2019-01-08T06:46:01.501Z,999.47
2019-01-08T06:47:01.497Z,999.40
2019-01-08T06:48:01.484Z,999.38
2019-01-08T06:49:01.481Z,999.29
2019-01-08T06:50:01.457Z,999.34
2019-01-08T06:51:01.449Z,999.44
2019-01-08T06:52:01.457Z,999.37
2019-01-08T06:53:01.457Z,999.33
2019-01-08T06:54:01.417Z,999.27
2019-01-08T06:55:01.413Z,999.39
2019-01-08T06:56:01.393Z,999.32
2019-01-08T06:57:01.381Z,999.46
2019-01-08T06:58:01.389Z,999.26
2019-01-08T06:59:01.371Z,999.23
2019-01-08T07:00:01.357Z,999.23
2019-01-08T07:01:01.337Z,999.38
2019-01-08T07:02:01.333Z,999.11
2019-01-08T07:03:01.330Z,999.35
2019-01-08T07:04:01.304Z,999.20
2019-01-08T07:05:01.298Z,999.10
2019-01-08T07:06:01.329Z,999.26
2019-01-08T07:07:01.268Z,999.24
2019-01-08T07:08:01.262Z,999.36
2019-01-08T07:09:01.274Z,999.17
2019-01-08T07:10:01.238Z,999.11
2019-01-08T07:11:01.248Z,999.18
2019-01-08T07:12:01.215Z,999.26
2019-01-08T07:13:01.238Z,999.07
2019-01-08T07:14:01.193Z,999.19
2019-01-08T07:15:01.193Z,999.32
2019-01-08T07:16:01.168Z,999.15
2019-01-08T07:17:01.173Z,999.19
2019-01-08T07:18:01.149Z,999.15
2019-01-08T07:19:01.147Z,999.20
2019-01-08T07:20:01.126Z,999.04
2019-01-08T07:21:01.125Z,999.10
2019-01-08T07:22:01.117Z,999.12
2019-01-08T07:23:01.096Z,999.23
2019-01-08T07:24:01.088Z,999.16
2019-01-08T07:25:01.088Z,999.17
2019-01-08T07:26:01.101Z,998.98
2019-01-08T07:27:01.052Z,999.20
2019-01-08T07:28:01.053Z,999.05
2019-01-08T07:29:01.025Z,998.97
2019-01-08T07:30:01.024Z,999.03
2019-01-08T07:31:01.024Z,999.01
2019-01-08T07:32:01.005Z,998.98
2019-01-08T07:33:00.989Z,998.88
2019-01-08T07:34:00.973Z,998.96
2019-01-08T07:35:00.962Z,998.97
2019-01-08T07:36:00.949Z,998.92
2019-01-08T07:37:00.986Z,998.92
2019-01-08T07:38:00.929Z,999.01
2019-01-08T07:39:00.945Z,998.85
2019-01-08T07:40:00.905Z,998.86
2019-01-08T07:41:00.893Z,998.83
2019-01-08T07:42:00.884Z,999.08
2019-01-08T07:43:00.890Z,998.84
2019-01-08T07:44:00.875Z,998.96
2019-01-08T07:45:00.849Z,998.86
2019-01-08T07:46:00.851Z,998.86
2019-01-08T07:47:00.830Z,998.86
2019-01-08T07:48:00.820Z,998.82
2019-01-08T07:49:00.804Z,998.87
2019-01-08T07:50:00.811Z,998.92
2019-01-08T07:51:00.790Z,998.76
2019-01-08T07:52:00.779Z,998.81
2019-01-08T07:53:00.762Z,998.66
2019-01-08T07:54:00.752Z,998.70
2019-01-08T07:55:00.778Z,998.82
2019-01-08T07:56:00.751Z,998.82
2019-01-08T07:57:00.717Z,998.77
2019-01-08T07:58:00.706Z,998.61
2019-01-08T07:59:00.696Z,998.73
2019-01-08T08:00:00.686Z,998.61
2019-01-08T08:01:00.717Z,998.65
2019-01-08T08:02:00.660Z,998.53
2019-01-08T08:03:00.648Z,998.69
2019-01-08T08:04:00.641Z,998.55
2019-01-08T08:05:00.628Z,998.63
2019-01-08T08:06:00.625Z,998.49
2019-01-08T08:07:00.620Z,998.56
2019-01-08T08:08:00.597Z,998.72
2019-01-08T08:09:00.584Z,998.54
2019-01-08T08:10:00.699Z,998.51
2019-01-08T08:11:00.564Z,998.45
2019-01-08T08:12:00.554Z,998.34
2019-01-08T08:13:00.564Z,998.44
2019-01-08T08:14:00.539Z,998.49
2019-01-08T08:15:00.516Z,998.51
2019-01-08T08:16:00.507Z,998.59
2019-01-08T08:17:00.503Z,998.55
2019-01-08T08:18:00.485Z,998.36
2019-01-08T08:19:00.482Z,998.51
2019-01-08T08:20:00.466Z,998.36
2019-01-08T08:21:00.459Z,998.27
2019-01-08T08:22:00.440Z,998.26
2019-01-08T08:23:00.430Z,998.33
2019-01-08T08:24:00.436Z,998.29
2019-01-08T08:25:00.425Z,998.21
2019-01-08T08:26:00.398Z,998.39
2019-01-08T08:27:00.390Z,998.58
2019-01-08T08:28:00.373Z,998.43
2019-01-08T08:29:00.373Z,998.15
2019-01-08T08:30:00.363Z,998.52
2019-01-08T08:31:00.364Z,998.33
2019-01-08T08:32:00.326Z,998.41
2019-01-08T08:33:00.340Z,998.29
2019-01-08T08:34:00.306Z,998.39
2019-01-08T08:35:07.913Z,998.37
2019-01-08T08:36:01.304Z,998.24
2019-01-08T08:37:00.273Z,998.24
2019-01-08T08:38:00.269Z,998.23
2019-01-08T08:39:00.253Z,998.26
2019-01-08T08:40:00.284Z,998.18
2019-01-08T08:41:00.227Z,998.22
2019-01-08T08:42:00.228Z,998.61
2019-01-08T08:43:00.208Z,998.23
2019-01-08T08:44:00.200Z,998.75
2019-01-08T08:45:00.317Z,998.47
2019-01-08T08:46:07.231Z,998.43
2019-01-08T08:47:00.197Z,998.26
2019-01-08T08:48:00.156Z,998.34
2019-01-08T08:49:00.153Z,998.21
2019-01-08T08:50:00.200Z,998.57
2019-01-08T08:51:00.130Z,998.34
2019-01-08T08:52:00.117Z,998.30
2019-01-08T08:53:00.125Z,998.47
2019-01-08T08:54:00.100Z,998.49
2019-01-08T08:55:00.286Z,998.28
2019-01-08T08:56:00.072Z,998.39
2019-01-08T08:57:00.070Z,998.23
2019-01-08T08:58:00.044Z,998.26
2019-01-08T08:59:00.034Z,998.34
2019-01-08T09:00:00.037Z,998.36
2019-01-08T09:01:06.924Z,998.30
2019-01-08T09:02:00.996Z,998.31
2019-01-08T09:03:00.006Z,998.37
2019-01-08T09:03:59.982Z,998.33
2019-01-08T09:04:59.971Z,998.34
2019-01-08T09:05:59.954Z,998.23
2019-01-08T09:06:59.968Z,998.42
2019-01-08T09:07:59.930Z,998.36
2019-01-08T09:08:59.924Z,998.34
2019-01-08T09:09:59.913Z,998.34
2019-01-08T09:10:59.908Z,998.34
2019-01-08T09:11:59.885Z,998.41
2019-01-08T09:12:59.894Z,998.25
2019-01-08T09:13:59.879Z,998.37
2019-01-08T09:14:59.856Z,998.34
2019-01-08T09:15:59.848Z,998.30
2019-01-08T09:16:59.840Z,998.32
2019-01-08T09:17:59.836Z,998.35
2019-01-08T09:18:59.810Z,998.37
2019-01-08T09:19:59.817Z,998.43
2019-01-08T09:20:59.786Z,998.38
2019-01-08T09:21:59.795Z,998.19
2019-01-08T09:22:59.768Z,998.24
2019-01-08T09:23:59.765Z,998.22
2019-01-08T09:24:59.749Z,998.27
2019-01-08T09:25:59.743Z,998.28
2019-01-08T09:26:59.722Z,998.25
2019-01-08T09:27:59.710Z,998.27
2019-01-08T09:28:59.726Z,998.20
2019-01-08T09:29:59.690Z,998.16
2019-01-08T09:30:59.684Z,998.11
2019-01-08T09:31:59.663Z,998.41
2019-01-08T09:32:59.656Z,998.33
2019-01-08T09:33:59.749Z,998.29
2019-01-08T09:34:59.644Z,998.20
2019-01-08T09:35:59.630Z,998.18
2019-01-08T09:36:59.612Z,998.14
2019-01-08T09:37:59.608Z,998.25
2019-01-08T09:38:59.597Z,998.19
2019-01-08T09:39:59.596Z,998.22
2019-01-08T09:40:59.568Z,998.27
2019-01-08T09:41:59.554Z,998.15
2019-01-08T09:42:59.560Z,998.13
2019-01-08T09:43:59.533Z,998.12
2019-01-08T09:44:59.521Z,998.24
2019-01-08T09:45:59.537Z,998.27
2019-01-08T09:46:59.502Z,998.15
2019-01-08T09:47:59.490Z,998.26
2019-01-08T09:48:59.487Z,998.32
2019-01-08T09:49:59.472Z,998.22
2019-01-08T09:50:59.454Z,998.24
2019-01-08T09:51:59.482Z,998.12
2019-01-08T09:52:59.438Z,998.20
2019-01-08T09:53:59.422Z,998.19
2019-01-08T09:54:59.416Z,998.31
2019-01-08T09:55:59.402Z,998.29
2019-01-08T09:56:59.418Z,998.20
2019-01-08T09:57:59.377Z,998.22
2019-01-08T09:58:59.372Z,998.25
2019-01-08T09:59:59.356Z,998.34
2019-01-08T10:00:59.348Z,998.19
2019-01-08T10:01:59.355Z,998.21
2019-01-08T10:02:59.331Z,998.25
2019-01-08T10:03:59.322Z,998.29
2019-01-08T10:04:59.300Z,998.22
2019-01-08T10:05:59.290Z,998.17
2019-01-08T10:06:59.278Z,998.20
2019-01-08T10:07:59.295Z,998.22
2019-01-08T10:08:59.263Z,998.19
2019-01-08T10:09:59.268Z,998.26
2019-01-08T10:10:59.238Z,998.21
2019-01-08T10:11:59.226Z,998.24
2019-01-08T10:12:59.210Z,998.15
2019-01-08T10:13:59.199Z,998.20
2019-01-08T10:14:59.211Z,998.14
2019-01-08T10:15:59.208Z,998.22
2019-01-08T10:16:59.176Z,998.26
2019-01-08T10:17:59.160Z,998.20
2019-01-08T10:18:59.150Z,998.21
2019-01-08T10:19:59.138Z,998.18
2019-01-08T10:20:59.124Z,998.26
2019-01-08T10:21:59.138Z,998.17
2019-01-08T10:22:59.104Z,998.08
2019-01-08T10:23:59.110Z,998.16
2019-01-08T10:24:59.078Z,998.11
2019-01-08T10:25:59.071Z,998.06
2019-01-08T10:26:59.060Z,998.02
2019-01-08T10:27:59.075Z,998.19
2019-01-08T10:28:59.035Z,998.08
2019-01-08T10:29:59.034Z,997.90
2019-01-08T10:30:59.015Z,997.84
2019-01-08T10:31:59.005Z,997.88
2019-01-08T10:32:58.997Z,997.93
2019-01-08T10:33:58.991Z,997.83
2019-01-08T10:34:59.591Z,997.88
2019-01-08T10:35:58.963Z,997.83
2019-01-08T10:36:58.948Z,997.93
2019-01-08T10:37:58.938Z,997.82
2019-01-08T10:38:58.942Z,997.67
2019-01-08T10:39:58.915Z,997.66
2019-01-08T10:40:58.903Z,997.81
2019-01-08T10:41:58.898Z,997.73
2019-01-08T10:42:58.879Z,997.80
2019-01-08T10:43:58.871Z,997.75
2019-01-08T10:44:58.882Z,997.72
2019-01-08T10:45:58.851Z,997.64
2019-01-08T10:46:58.834Z,997.69
2019-01-08T10:47:58.835Z,997.81
2019-01-08T10:48:58.816Z,997.71
2019-01-08T10:49:58.802Z,997.73
2019-01-08T10:50:58.810Z,997.73
2019-01-08T10:51:58.783Z,997.69
2019-01-08T10:52:58.774Z,997.68
2019-01-08T10:53:58.758Z,997.75
2019-01-08T10:54:58.748Z,997.67
2019-01-08T10:55:58.739Z,997.75
2019-01-08T10:56:58.752Z,997.69
2019-01-08T10:57:58.711Z,997.74
2019-01-08T10:58:58.702Z,997.71
2019-01-08T10:59:58.695Z,997.71
2019-01-08T11:00:58.681Z,997.74
2019-01-08T11:01:58.669Z,997.84
2019-01-08T11:02:58.687Z,997.59
2019-01-08T11:03:58.647Z,997.67
2019-01-08T11:04:58.661Z,997.74
2019-01-08T11:05:58.622Z,997.70
2019-01-08T11:06:58.623Z,997.68
2019-01-08T11:07:58.598Z,997.77
2019-01-08T11:08:58.591Z,997.73
2019-01-08T11:09:58.579Z,997.66
2019-01-08T11:10:58.594Z,997.69
2019-01-08T11:11:58.553Z,997.67
2019-01-08T11:12:58.547Z,997.72
2019-01-08T11:13:58.535Z,997.78
2019-01-08T11:14:58.523Z,997.84
2019-01-08T11:15:58.534Z,997.72
2019-01-08T11:16:58.515Z,997.72
2019-01-08T11:17:58.492Z,997.80
2019-01-08T11:18:58.474Z,997.79
2019-01-08T11:19:58.468Z,997.75
2019-01-08T11:20:58.455Z,997.59
2019-01-08T11:21:58.535Z,997.64
2019-01-08T11:22:58.439Z,997.66
2019-01-08T11:23:58.423Z,997.69
2019-01-08T11:24:58.414Z,997.80
2019-01-08T11:25:58.401Z,997.66
2019-01-08T11:26:58.404Z,998.08
2019-01-08T11:27:58.382Z,997.66
2019-01-08T11:28:58.386Z,997.91
2019-01-08T11:29:58.358Z,997.76
2019-01-08T11:30:58.342Z,997.63
2019-01-08T11:31:58.333Z,997.95
2019-01-08T11:32:58.350Z,997.94
2019-01-08T11:33:58.311Z,997.90
2019-01-08T11:34:58.303Z,998.01
2019-01-08T11:35:58.302Z,998.01
2019-01-08T11:36:58.280Z,998.19
2019-01-08T11:37:58.263Z,998.08
2019-01-08T11:38:58.291Z,997.91
2019-01-08T11:39:58.247Z,998.25
2019-01-08T11:40:58.232Z,998.06
2019-01-08T11:41:58.226Z,998.08
2019-01-08T11:42:58.211Z,997.96
2019-01-08T11:43:58.197Z,997.97
2019-01-08T11:44:58.229Z,998.03
2019-01-08T11:45:58.182Z,997.92
2019-01-08T11:46:58.167Z,998.15
2019-01-08T11:48:03.995Z,998.03
2019-01-08T11:48:59.147Z,997.99
2019-01-08T11:49:58.137Z,997.89
2019-01-08T11:50:58.151Z,997.95
2019-01-08T11:51:58.108Z,997.91
2019-01-08T11:52:58.109Z,998.00
2019-01-08T11:53:58.090Z,997.87
2019-01-08T11:54:58.090Z,997.97
2019-01-08T11:55:59.058Z,997.97
2019-01-08T11:56:58.060Z,997.97
2019-01-08T11:57:58.047Z,997.93
2019-01-08T11:58:58.054Z,997.91
2019-01-08T11:59:58.042Z,997.81
2019-01-08T12:00:58.007Z,997.82
2019-01-08T12:01:58.013Z,997.98
2019-01-08T12:02:57.997Z,998.01
2019-01-08T12:03:57.975Z,997.85
2019-01-08T12:04:57.962Z,997.81
2019-01-08T12:05:57.951Z,997.83
2019-01-08T12:06:57.962Z,997.95
2019-01-08T12:07:57.951Z,998.07
2019-01-08T12:08:57.958Z,997.98
2019-01-08T12:09:57.915Z,997.97
2019-01-08T12:10:57.898Z,997.94
2019-01-08T12:11:57.909Z,997.84
2019-01-08T12:12:57.883Z,997.89
2019-01-08T12:13:57.867Z,997.97
2019-01-08T12:14:57.860Z,997.76
2019-01-08T12:15:57.859Z,997.96
2019-01-08T12:16:57.831Z,997.76
2019-01-08T12:17:57.839Z,997.71